createdAt,value
2018-09-14T00:00:59.612Z,17.00
2018-09-14T00:03:27.806Z,17.00
2018-09-14T00:05:55.739Z,17.00
2018-09-14T00:08:23.710Z,16.90
2018-09-14T00:10:51.672Z,16.90
2018-09-14T00:13:19.692Z,17.00
2018-09-14T00:15:47.635Z,17.00
2018-09-14T00:18:15.663Z,16.80
2018-09-14T00:20:43.605Z,16.90
2018-09-14T00:23:11.541Z,16.90
2018-09-14T00:25:39.514Z,16.90
2018-09-14T00:28:07.475Z,16.90
2018-09-14T00:30:35.428Z,16.90
2018-09-14T00:33:03.458Z,16.80
2018-09-14T00:35:31.399Z,16.90
2018-09-14T00:37:59.338Z,16.90
2018-09-14T00:40:27.291Z,17.00
2018-09-14T00:42:55.249Z,17.10
2018-09-14T00:45:23.247Z,17.00
2018-09-14T00:47:51.332Z,16.80
2018-09-14T00:50:19.267Z,16.80
2018-09-14T00:52:47.206Z,16.90
2018-09-14T00:55:15.980Z,17.00
2018-09-14T00:57:43.983Z,16.90
2018-09-14T01:00:12.222Z,17.00
2018-09-14T01:02:40.159Z,16.90
2018-09-14T01:05:08.122Z,16.80
2018-09-14T01:07:36.171Z,16.80
2018-09-14T01:10:05.042Z,16.90
2018-09-14T01:12:33.054Z,17.00
2018-09-14T01:15:00.987Z,17.00
2018-09-14T01:17:28.991Z,17.10
2018-09-14T01:19:56.935Z,17.20
2018-09-14T01:22:24.892Z,17.20
2018-09-14T01:24:52.929Z,17.20
2018-09-14T01:27:21.156Z,17.10
2018-09-14T01:29:49.147Z,17.20
2018-09-14T01:32:17.092Z,17.20
2018-09-14T01:34:45.315Z,17.20
2018-09-14T01:37:13.260Z,17.20
2018-09-14T01:39:41.235Z,17.20
2018-09-14T01:42:09.270Z,17.20
2018-09-14T01:44:37.230Z,17.10
2018-09-14T01:47:05.170Z,17.10
2018-09-14T01:49:33.140Z,17.10
2018-09-14T01:52:01.082Z,17.10
2018-09-14T01:54:29.081Z,17.20
2018-09-14T01:56:56.968Z,17.20
2018-09-14T01:59:24.936Z,17.20
2018-09-14T02:01:52.920Z,17.10
2018-09-14T02:04:20.849Z,17.20
2018-09-14T02:06:48.826Z,17.20
2018-09-14T02:09:19.963Z,17.20
2018-09-14T02:11:47.939Z,17.20
2018-09-14T02:14:15.890Z,17.10
2018-09-14T02:16:43.906Z,17.10
2018-09-14T02:19:11.960Z,17.10
2018-09-14T02:21:39.894Z,17.00
2018-09-14T02:24:07.889Z,16.90
2018-09-14T02:26:35.911Z,16.90
2018-09-14T02:29:03.880Z,16.80
2018-09-14T02:31:31.975Z,16.80
2018-09-14T02:33:59.901Z,16.90
2018-09-14T02:36:27.835Z,16.80
2018-09-14T02:38:55.908Z,16.90
2018-09-14T02:41:23.853Z,17.00
2018-09-14T02:43:52.070Z,17.10
2018-09-14T02:46:20.044Z,17.10
2018-09-14T02:48:47.996Z,17.10
2018-09-14T02:51:15.992Z,17.10
2018-09-14T02:53:43.938Z,17.10
2018-09-14T02:56:12.058Z,17.10
2018-09-14T02:58:39.994Z,17.10
2018-09-14T03:01:07.947Z,17.00
2018-09-14T03:03:35.900Z,17.00
2018-09-14T03:06:03.872Z,16.90
2018-09-14T03:08:31.891Z,16.80
2018-09-14T03:11:03.461Z,16.70
2018-09-14T03:13:31.717Z,16.80
2018-09-14T03:15:59.655Z,16.80
2018-09-14T03:18:27.595Z,16.80
2018-09-14T03:20:55.592Z,16.90
2018-09-14T03:23:23.556Z,16.90
2018-09-14T03:25:51.522Z,17.00
2018-09-14T03:28:25.831Z,17.00
2018-09-14T03:30:53.799Z,17.10
2018-09-14T03:33:21.787Z,17.10
2018-09-14T03:35:49.966Z,17.10
2018-09-14T03:38:17.916Z,17.00
2018-09-14T03:40:45.874Z,17.10
2018-09-14T03:43:13.854Z,17.00
2018-09-14T03:45:41.796Z,17.00
2018-09-14T03:48:10.003Z,17.00
2018-09-14T03:50:37.954Z,17.00
2018-09-14T03:53:05.898Z,17.00
2018-09-14T03:55:34.097Z,17.10
2018-09-14T03:58:02.019Z,17.10
2018-09-14T04:00:29.964Z,17.10
2018-09-14T04:02:57.922Z,17.10
2018-09-14T04:05:25.899Z,17.10
2018-09-14T04:07:53.989Z,17.10
2018-09-14T04:10:21.858Z,17.10
2018-09-14T04:12:49.896Z,17.10
2018-09-14T04:15:17.852Z,17.00
2018-09-14T04:17:45.798Z,17.00
2018-09-14T04:20:13.802Z,17.00
2018-09-14T04:22:41.859Z,17.00
2018-09-14T04:25:09.797Z,16.90
2018-09-14T04:27:37.800Z,16.90
2018-09-14T04:30:05.856Z,16.90
2018-09-14T04:32:33.812Z,16.90
2018-09-14T04:35:01.771Z,17.00
2018-09-14T04:37:29.703Z,17.00
2018-09-14T04:39:57.663Z,17.00
2018-09-14T04:42:25.731Z,17.00
2018-09-14T04:44:53.774Z,16.90
2018-09-14T04:47:21.734Z,16.80
2018-09-14T04:49:49.699Z,16.80
2018-09-14T04:52:17.679Z,16.90
2018-09-14T04:54:45.635Z,16.90
2018-09-14T04:57:17.165Z,16.90
2018-09-14T04:59:45.058Z,17.00
2018-09-14T05:02:13.312Z,17.00
2018-09-14T05:04:41.250Z,17.00
2018-09-14T05:07:09.222Z,17.00
2018-09-14T05:09:37.279Z,17.00
2018-09-14T05:12:05.247Z,17.00
2018-09-14T05:14:33.226Z,17.10
2018-09-14T05:17:01.166Z,17.10
2018-09-14T05:19:29.126Z,17.10
2018-09-14T05:21:57.389Z,17.10
2018-09-14T05:24:25.408Z,17.10
2018-09-14T05:26:53.508Z,17.10
2018-09-14T05:29:21.743Z,17.10
2018-09-14T05:31:49.720Z,17.20
2018-09-14T05:34:20.954Z,17.20
2018-09-14T05:36:48.936Z,17.20
2018-09-14T05:39:16.903Z,17.20
2018-09-14T05:41:44.881Z,17.20
2018-09-14T05:44:12.880Z,17.10
2018-09-14T05:46:40.916Z,17.10
2018-09-14T05:49:08.862Z,17.10
2018-09-14T05:51:36.811Z,17.10
2018-09-14T05:54:04.799Z,17.10
2018-09-14T05:56:32.774Z,17.10
2018-09-14T05:59:00.726Z,17.10
2018-09-14T06:01:28.699Z,17.20
2018-09-14T06:03:56.668Z,17.20
2018-09-14T06:06:24.666Z,17.20
2018-09-14T06:08:52.616Z,17.30
2018-09-14T06:11:20.568Z,17.30
2018-09-14T06:13:48.599Z,17.30
2018-09-14T06:16:16.645Z,17.40
2018-09-14T06:18:44.577Z,17.40
2018-09-14T06:21:12.538Z,17.30
2018-09-14T06:23:40.500Z,17.20
2018-09-14T06:26:08.570Z,17.20
2018-09-14T06:28:39.621Z,17.30
2018-09-14T06:31:07.572Z,17.30
2018-09-14T06:33:35.543Z,17.30
2018-09-14T06:36:03.516Z,17.30
2018-09-14T06:38:31.500Z,17.40
2018-09-14T06:40:59.437Z,17.40
2018-09-14T06:43:27.441Z,17.40
2018-09-14T06:45:55.380Z,17.40
2018-09-14T06:48:23.335Z,17.50
2018-09-14T06:50:51.279Z,17.50
2018-09-14T06:53:19.287Z,17.50
2018-09-14T06:55:47.266Z,17.40
2018-09-14T06:58:15.270Z,17.50
2018-09-14T07:00:43.873Z,17.50
2018-09-14T07:03:11.872Z,17.50
2018-09-14T07:05:39.884Z,17.60
2018-09-14T07:08:07.927Z,17.70
2018-09-14T07:10:35.874Z,17.80
2018-09-14T07:13:03.853Z,17.80
2018-09-14T07:15:31.785Z,17.70
2018-09-14T07:17:59.747Z,17.70
2018-09-14T07:20:27.719Z,17.70
2018-09-14T07:22:55.770Z,17.70
2018-09-14T07:25:23.727Z,17.70
2018-09-14T07:27:51.774Z,17.80
2018-09-14T07:30:19.717Z,17.90
2018-09-14T07:32:47.690Z,17.90
2018-09-14T07:35:15.674Z,18.00
2018-09-14T07:37:43.896Z,18.10
2018-09-14T07:40:11.842Z,18.00
2018-09-14T07:42:39.775Z,18.00
2018-09-14T07:45:07.902Z,18.10
2018-09-14T07:47:35.838Z,18.20
2018-09-14T07:50:03.838Z,18.30
2018-09-14T07:52:31.876Z,18.30
2018-09-14T07:54:59.818Z,18.30
2018-09-14T07:57:27.771Z,18.30
2018-09-14T07:59:55.984Z,18.40
2018-09-14T08:02:24.054Z,18.40
2018-09-14T08:04:52.017Z,18.40
2018-09-14T08:07:19.948Z,18.40
2018-09-14T08:09:48.139Z,18.50
2018-09-14T08:12:16.070Z,18.50
2018-09-14T08:14:44.036Z,18.50
2018-09-14T08:17:12.026Z,18.40
2018-09-14T08:19:40.038Z,18.50
2018-09-14T08:22:07.984Z,18.50
2018-09-14T08:24:35.961Z,18.50
2018-09-14T08:27:03.953Z,18.50
2018-09-14T08:29:31.870Z,18.60
2018-09-14T08:31:59.862Z,18.60
2018-09-14T08:34:27.814Z,18.60
2018-09-14T08:36:55.778Z,18.50
2018-09-14T08:39:23.735Z,18.50
2018-09-14T08:41:51.723Z,18.70
2018-09-14T08:44:19.674Z,18.80
2018-09-14T08:46:47.632Z,18.80
2018-09-14T08:49:15.595Z,18.80
2018-09-14T08:51:43.567Z,18.80
2018-09-14T08:54:11.591Z,18.90
2018-09-14T08:56:39.538Z,18.90
2018-09-14T08:59:07.526Z,19.00
2018-09-14T09:01:35.564Z,19.00
2018-09-14T09:04:03.488Z,19.00
2018-09-14T09:06:31.628Z,19.10
2018-09-14T09:08:59.606Z,19.10
2018-09-14T09:11:27.551Z,19.20
2018-09-14T09:13:55.675Z,19.10
2018-09-14T09:16:23.643Z,19.10
2018-09-14T09:18:51.618Z,19.10
2018-09-14T09:21:19.588Z,19.20
2018-09-14T09:23:47.510Z,19.20
2018-09-14T09:26:15.470Z,19.30
2018-09-14T09:28:43.456Z,19.40
2018-09-14T09:31:11.409Z,19.40
2018-09-14T09:33:39.351Z,19.40
2018-09-14T09:36:07.290Z,19.50
2018-09-14T09:38:35.270Z,19.50
2018-09-14T09:41:03.232Z,19.40
2018-09-14T09:43:31.263Z,19.30
2018-09-14T09:45:59.222Z,19.40
2018-09-14T09:48:27.174Z,19.40
2018-09-14T09:50:55.218Z,19.50
2018-09-14T09:53:23.110Z,19.60
2018-09-14T09:55:51.054Z,19.60
2018-09-14T09:58:19.006Z,19.70
2018-09-14T10:00:52.417Z,19.70
2018-09-14T10:03:25.860Z,19.70
2018-09-14T10:06:00.977Z,19.70
2018-09-14T10:08:29.230Z,19.70
2018-09-14T10:10:57.186Z,19.80
2018-09-14T10:13:25.171Z,19.90
2018-09-14T10:15:53.136Z,19.90
2018-09-14T10:18:21.094Z,19.90
2018-09-14T10:20:49.060Z,20.00
2018-09-14T10:23:17.080Z,20.00
2018-09-14T10:25:45.044Z,20.10
2018-09-14T10:28:13.055Z,20.10
2018-09-14T10:30:41.043Z,20.10
2018-09-14T10:33:09.005Z,20.20
2018-09-14T10:35:36.962Z,20.20
2018-09-14T10:38:05.145Z,20.30
2018-09-14T10:40:33.086Z,20.20
2018-09-14T10:43:01.050Z,20.10
2018-09-14T10:45:29.016Z,20.10
2018-09-14T10:48:00.681Z,20.10
2018-09-14T10:50:28.658Z,20.20
2018-09-14T10:52:56.583Z,20.30
2018-09-14T10:55:24.514Z,20.30
2018-09-14T10:57:52.589Z,20.30
2018-09-14T11:00:20.575Z,20.30
2018-09-14T11:02:48.666Z,20.40
2018-09-14T11:05:16.702Z,20.30
2018-09-14T11:07:44.706Z,20.40
2018-09-14T11:10:13.075Z,20.40
2018-09-14T11:12:41.181Z,20.40
2018-09-14T11:15:15.702Z,20.50
2018-09-14T11:17:43.683Z,20.50
2018-09-14T11:20:11.647Z,20.50
2018-09-14T11:22:39.592Z,20.50
2018-09-14T11:25:07.691Z,20.40
2018-09-14T11:27:35.559Z,20.40
2018-09-14T11:30:03.515Z,20.30
2018-09-14T11:32:32.876Z,20.30
2018-09-14T11:35:00.855Z,20.30
2018-09-14T11:37:28.922Z,20.40
2018-09-14T11:39:57.310Z,20.40
2018-09-14T11:42:26.155Z,20.50
2018-09-14T11:44:54.111Z,20.50
2018-09-14T11:47:22.063Z,20.60
2018-09-14T11:49:50.051Z,20.70
2018-09-14T11:52:17.992Z,20.70
2018-09-14T11:54:46.154Z,20.70
2018-09-14T11:57:14.138Z,20.70
2018-09-14T11:59:42.103Z,20.70
2018-09-14T12:02:10.056Z,20.80
2018-09-14T12:04:38.016Z,20.80
2018-09-14T12:07:05.987Z,20.70
2018-09-14T12:09:34.033Z,20.80
2018-09-14T12:12:01.993Z,20.80
2018-09-14T12:14:29.935Z,20.90
2018-09-14T12:16:57.880Z,21.00
2018-09-14T12:19:29.551Z,21.00
2018-09-14T12:21:57.504Z,21.10
2018-09-14T12:24:25.467Z,21.10
2018-09-14T12:26:53.437Z,21.10
2018-09-14T12:29:21.450Z,21.10
2018-09-14T12:31:49.394Z,21.10
2018-09-14T12:34:17.359Z,21.10
2018-09-14T12:36:45.315Z,21.10
2018-09-14T12:39:13.266Z,21.20
2018-09-14T12:41:41.235Z,21.20
2018-09-14T12:44:09.169Z,21.20
2018-09-14T12:46:37.133Z,21.30
2018-09-14T12:49:05.088Z,21.30
2018-09-14T12:51:33.079Z,21.30
2018-09-14T12:54:01.057Z,21.30
2018-09-14T12:56:29.007Z,21.30
2018-09-14T12:58:57.014Z,21.40
2018-09-14T13:01:25.127Z,21.40
2018-09-14T13:03:53.111Z,21.40
2018-09-14T13:06:21.061Z,21.40
2018-09-14T13:08:49.043Z,21.30
2018-09-14T13:11:17.099Z,21.30
2018-09-14T13:13:45.100Z,21.30
2018-09-14T13:16:13.215Z,21.20
2018-09-14T13:18:41.411Z,21.20
2018-09-14T13:21:09.408Z,21.10
2018-09-14T13:23:37.370Z,21.10
2018-09-14T13:26:05.340Z,21.10
2018-09-14T13:28:33.359Z,21.20
2018-09-14T13:31:01.316Z,21.20
2018-09-14T13:33:29.296Z,21.20
2018-09-14T13:35:57.280Z,21.10
2018-09-14T13:38:25.225Z,21.10
2018-09-14T13:40:53.187Z,21.10
2018-09-14T13:43:21.151Z,21.10
2018-09-14T13:45:49.114Z,21.10
2018-09-14T13:48:17.091Z,21.20
2018-09-14T13:50:45.099Z,21.20
2018-09-14T13:53:13.126Z,21.20
2018-09-14T13:55:41.045Z,21.20
2018-09-14T13:58:09.007Z,21.20
2018-09-14T14:00:36.955Z,21.20
2018-09-14T14:03:05.342Z,21.30
2018-09-14T14:05:33.337Z,21.40
2018-09-14T14:08:01.322Z,21.50
2018-09-14T14:10:29.264Z,21.50
2018-09-14T14:12:57.250Z,21.60
2018-09-14T14:15:25.199Z,21.60
2018-09-14T14:17:53.449Z,21.60
2018-09-14T14:20:21.261Z,21.50
2018-09-14T14:22:49.235Z,21.50
2018-09-14T14:25:17.204Z,21.40
2018-09-14T14:27:45.152Z,21.40
2018-09-14T14:30:13.131Z,21.30
2018-09-14T14:32:41.095Z,21.30
2018-09-14T14:35:09.047Z,21.30
2018-09-14T14:37:36.996Z,21.40
2018-09-14T14:40:04.950Z,21.40
2018-09-14T14:42:32.940Z,21.40
2018-09-14T14:45:00.901Z,21.30
2018-09-14T14:47:28.861Z,21.30
2018-09-14T14:49:56.854Z,21.30
2018-09-14T14:52:24.856Z,21.30
2018-09-14T14:54:52.842Z,21.20
2018-09-14T14:57:20.873Z,21.20
2018-09-14T14:59:48.981Z,21.20
2018-09-14T15:02:16.936Z,21.20
2018-09-14T15:04:44.903Z,21.20
2018-09-14T15:07:12.866Z,21.30
2018-09-14T15:09:40.836Z,21.30
2018-09-14T15:12:08.862Z,21.40
2018-09-14T15:14:36.830Z,21.40
2018-09-14T15:17:04.799Z,21.40
2018-09-14T15:19:32.793Z,21.30
2018-09-14T15:22:00.726Z,21.30
2018-09-14T15:24:28.692Z,21.30
2018-09-14T15:26:56.658Z,21.30
2018-09-14T15:29:24.625Z,21.40
2018-09-14T15:31:52.599Z,21.40
2018-09-14T15:34:20.557Z,21.40
2018-09-14T15:36:48.506Z,21.40
2018-09-14T15:39:16.486Z,21.40
2018-09-14T15:41:44.422Z,21.40
2018-09-14T15:44:12.379Z,21.40
2018-09-14T15:46:40.332Z,21.40
2018-09-14T15:49:08.380Z,21.40
2018-09-14T15:51:36.290Z,21.40
2018-09-14T15:54:04.230Z,21.40
2018-09-14T15:56:32.186Z,21.50
2018-09-14T15:59:00.158Z,21.40
2018-09-14T16:01:28.132Z,21.40
2018-09-14T16:03:56.049Z,21.40
2018-09-14T16:06:24.012Z,21.40
2018-09-14T16:08:51.974Z,21.40
2018-09-14T16:11:20.041Z,21.40
2018-09-14T16:13:48.007Z,21.40
2018-09-14T16:16:16.003Z,21.30
2018-09-14T16:21:18.728Z,21.30
2018-09-14T16:23:46.795Z,21.30
2018-09-14T16:26:14.767Z,21.30
2018-09-14T16:28:42.838Z,21.30
2018-09-14T16:31:10.812Z,21.30
2018-09-14T16:33:38.801Z,21.30
2018-09-14T16:36:06.746Z,21.20
2018-09-14T16:38:34.781Z,21.20
2018-09-14T16:41:02.760Z,21.10
2018-09-14T16:43:30.783Z,21.10
2018-09-14T16:45:58.687Z,21.10
2018-09-14T16:48:26.638Z,21.10
2018-09-14T16:50:54.647Z,21.10
2018-09-14T16:53:22.629Z,21.00
2018-09-14T16:55:50.714Z,20.90
2018-09-14T16:58:18.725Z,20.90
2018-09-14T17:00:46.720Z,20.90
2018-09-14T17:03:14.654Z,20.90
2018-09-14T17:05:42.595Z,20.80
2018-09-14T17:08:10.642Z,20.80
2018-09-14T17:10:38.578Z,20.80
2018-09-14T17:13:06.631Z,20.80
2018-09-14T17:15:34.671Z,20.80
2018-09-14T17:18:02.643Z,20.70
2018-09-14T17:20:30.608Z,20.70
2018-09-14T17:22:58.657Z,20.70
2018-09-14T17:25:26.622Z,20.70
2018-09-14T17:27:54.607Z,20.70
2018-09-14T17:30:22.546Z,20.60
2018-09-14T17:32:50.539Z,20.50
2018-09-14T17:35:18.637Z,20.50
2018-09-14T17:37:46.870Z,20.40
2018-09-14T17:40:14.952Z,20.40
2018-09-14T17:42:42.917Z,20.40
2018-09-14T17:45:10.874Z,20.30
2018-09-14T17:47:38.903Z,20.30
2018-09-14T17:50:07.172Z,20.30
2018-09-14T17:52:35.232Z,20.30
2018-09-14T17:55:03.251Z,20.20
2018-09-14T17:57:31.311Z,20.20
2018-09-14T17:59:59.291Z,20.10
2018-09-14T18:02:27.254Z,20.20
2018-09-14T18:04:55.416Z,20.20
2018-09-14T18:07:23.740Z,20.20
2018-09-14T18:09:51.657Z,20.10
2018-09-14T18:12:19.646Z,20.10
2018-09-14T18:14:47.732Z,20.10
2018-09-14T18:17:15.746Z,20.10
2018-09-14T18:19:43.724Z,20.10
2018-09-14T18:22:11.766Z,20.10
2018-09-14T18:24:39.832Z,20.10
2018-09-14T18:27:07.778Z,20.00
2018-09-14T18:29:35.730Z,20.00
2018-09-14T18:32:03.784Z,20.00
2018-09-14T18:34:31.738Z,20.00
2018-09-14T18:36:59.704Z,20.00
2018-09-14T18:39:27.695Z,20.00
2018-09-14T18:41:55.722Z,20.00
2018-09-14T18:44:23.763Z,20.00
2018-09-14T18:46:51.811Z,20.00
2018-09-14T18:49:19.730Z,20.00
2018-09-14T18:51:47.710Z,19.90
2018-09-14T18:54:15.673Z,19.80
2018-09-14T18:56:43.734Z,19.80
2018-09-14T18:59:11.739Z,19.70
2018-09-14T19:01:39.725Z,19.70
2018-09-14T19:04:07.767Z,19.70
2018-09-14T19:06:35.720Z,19.70
2018-09-14T19:09:05.472Z,19.60
2018-09-14T19:11:33.467Z,19.50
2018-09-14T19:14:01.458Z,19.60
2018-09-14T19:16:29.442Z,19.50
2018-09-14T19:18:57.394Z,19.50
2018-09-14T19:21:25.368Z,19.60
2018-09-14T19:23:53.357Z,19.60
2018-09-14T19:26:24.660Z,19.50
2018-09-14T19:28:53.266Z,19.50
2018-09-14T19:31:21.389Z,19.40
2018-09-14T19:33:49.309Z,19.40
2018-09-14T19:36:17.250Z,19.40
2018-09-14T19:38:45.240Z,19.20
2018-09-14T19:41:13.188Z,19.20
2018-09-14T19:43:41.143Z,19.20
2018-09-14T19:46:09.134Z,19.20
2018-09-14T19:48:37.127Z,19.20
2018-09-14T19:51:05.249Z,19.30
2018-09-14T19:53:33.194Z,19.30
2018-09-14T19:56:01.134Z,19.30
2018-09-14T19:58:29.160Z,19.30
2018-09-14T20:00:57.118Z,19.30
2018-09-14T20:03:25.090Z,19.30
2018-09-14T20:05:53.342Z,19.20
2018-09-14T20:08:21.328Z,19.20
2018-09-14T20:10:49.276Z,19.20
2018-09-14T20:13:17.275Z,19.20
2018-09-14T20:15:45.219Z,19.10
2018-09-14T20:18:13.189Z,19.10
2018-09-14T20:20:41.345Z,19.10
2018-09-14T20:23:09.384Z,19.10
2018-09-14T20:25:37.442Z,19.10
2018-09-14T20:28:05.384Z,19.00
2018-09-14T20:30:33.443Z,19.00
2018-09-14T20:33:01.298Z,19.00
2018-09-14T20:35:29.762Z,19.00
2018-09-14T20:37:58.360Z,19.10
2018-09-14T20:40:26.600Z,19.10
2018-09-14T20:43:04.754Z,19.10
2018-09-14T20:45:32.711Z,19.10
2018-09-14T20:48:00.756Z,19.00
2018-09-14T20:50:28.722Z,19.00
2018-09-14T20:52:57.223Z,19.00
2018-09-14T20:55:25.253Z,19.00
2018-09-14T20:57:53.231Z,19.00
2018-09-14T21:00:23.590Z,19.00
2018-09-14T21:02:51.555Z,19.10
2018-09-14T21:05:19.831Z,19.10
2018-09-14T21:07:47.803Z,19.10
2018-09-14T21:10:15.783Z,19.10
2018-09-14T21:12:43.715Z,19.10
2018-09-14T21:15:11.805Z,19.10
2018-09-14T21:17:40.575Z,19.10
2018-09-14T21:20:08.547Z,19.10
2018-09-14T21:22:36.584Z,19.10
2018-09-14T21:25:04.579Z,19.10
2018-09-14T21:27:32.583Z,19.10
2018-09-14T21:30:00.578Z,19.10
2018-09-14T21:32:28.539Z,19.10
2018-09-14T21:34:56.568Z,19.10
2018-09-14T21:37:24.649Z,19.10
2018-09-14T21:39:53.293Z,19.10
2018-09-14T21:42:21.291Z,19.00
2018-09-14T21:44:49.256Z,19.00
2018-09-14T21:47:17.243Z,19.00
2018-09-14T21:49:45.273Z,19.00
2018-09-14T21:52:13.262Z,19.00
2018-09-14T21:54:41.221Z,18.90
2018-09-14T21:57:09.223Z,18.90
2018-09-14T21:59:37.290Z,18.90
2018-09-14T22:02:05.390Z,18.90
2018-09-14T22:04:33.418Z,18.80
2018-09-14T22:07:01.404Z,18.70
2018-09-14T22:09:29.453Z,18.70
2018-09-14T22:11:57.694Z,18.70
2018-09-14T22:14:25.682Z,18.70
2018-09-14T22:16:53.695Z,18.70
2018-09-14T22:19:21.658Z,18.70
2018-09-14T22:21:49.619Z,18.70
2018-09-14T22:24:17.595Z,18.60
2018-09-14T22:26:45.655Z,18.60
2018-09-14T22:29:17.493Z,18.70
2018-09-14T22:31:45.433Z,18.70
2018-09-14T22:34:13.734Z,18.70
2018-09-14T22:36:41.695Z,18.70
2018-09-14T22:39:11.309Z,18.70
2018-09-14T22:41:39.266Z,18.70
2018-09-14T22:44:07.612Z,18.80
2018-09-14T22:46:35.588Z,18.70
2018-09-14T22:49:03.623Z,18.80
2018-09-14T22:51:31.632Z,18.80
2018-09-14T22:53:59.579Z,18.80
2018-09-14T22:56:27.805Z,18.80
2018-09-14T22:58:55.759Z,18.80
2018-09-14T23:01:24.112Z,18.80
2018-09-14T23:03:52.182Z,18.80
2018-09-14T23:06:20.107Z,18.80
2018-09-14T23:08:48.062Z,18.80
2018-09-14T23:11:16.025Z,18.80
2018-09-14T23:13:43.966Z,18.80
2018-09-14T23:16:11.908Z,18.80
2018-09-14T23:18:39.822Z,18.80
2018-09-14T23:21:07.786Z,18.80
2018-09-14T23:23:35.754Z,18.80
2018-09-14T23:26:08.119Z,18.80
2018-09-14T23:28:36.155Z,18.90
2018-09-14T23:31:04.093Z,18.90
2018-09-14T23:33:32.055Z,18.90
2018-09-14T23:36:00.059Z,18.90
2018-09-14T23:38:28.014Z,18.90
2018-09-14T23:40:55.975Z,18.90
2018-09-14T23:43:23.885Z,18.80
2018-09-14T23:45:54.743Z,18.80
2018-09-14T23:48:22.666Z,18.80
2018-09-14T23:50:50.602Z,18.80
2018-09-14T23:53:18.555Z,18.80
2018-09-14T23:55:46.522Z,18.80
2018-09-14T23:58:14.495Z,18.80
